sensor_id;sensor_type;location;lat;lon;timestamp;temperature;humidity
31765;DHT22;18338;53.240;8.798;2024-01-15T00:01:15;1.60;99.90
31765;DHT22;18338;53.240;8.798;2024-01-15T00:03:42;1.60;99.90
31765;DHT22;18338;53.240;8.798;2024-01-15T00:06:13;1.60;99.90
31765;DHT22;18338;53.240;8.798;2024-01-15T00:08:39;1.60;99.90
31765;DHT22;18338;53.240;8.798;2024-01-15T00:11:08;1.60;99.90
31765;DHT22;18338;53.240;8.798;2024-01-15T00:13:34;1.70;99.90
31765;DHT22;18338;53.240;8.798;2024-01-15T00:16:01;1.70;99.90
31765;DHT22;18338;53.240;8.798;2024-01-15T00:18:30;1.70;99.90
31765;DHT22;18338;53.240;8.798;2024-01-15T00:20:57;1.70;99.90
31765;DHT22;18338;53.240;8.798;2024-01-15T00:23:25;1.70;99.90
31765;DHT22;18338;53.240;8.798;2024-01-15T00:25:51;1.70;99.90
31765;DHT22;18338;53.240;8.798;2024-01-15T00:28:19;1.70;99.90
31765;DHT22;18338;53.240;8.798;2024-01-15T00:30:46;1.70;99.90
31765;DHT22;18338;53.240;8.798;2024-01-15T00:33:15;1.70;99.90
31765;DHT22;18338;53.240;8.798;2024-01-15T00:35:42;1.80;99.90
31765;DHT22;18338;53.240;8.798;2024-01-15T00:38:10;1.90;99.90
31765;DHT22;18338;53.240;8.798;2024-01-15T00:40:37;2.00;99.90
31765;DHT22;18338;53.240;8.798;2024-01-15T00:43:04;1.90;99.90
31765;DHT22;18338;53.240;8.798;2024-01-15T00:45:38;1.90;99.90
31765;DHT22;18338;53.240;8.798;2024-01-15T00:48:06;1.90;99.90
31765;DHT22;18338;53.240;8.798;2024-01-15T00:50:33;1.80;99.90
31765;DHT22;18338;53.240;8.798;2024-01-15T00:53:00;1.80;99.90
31765;DHT22;18338;53.240;8.798;2024-01-15T00:55:29;1.70;99.90
31765;DHT22;18338;53.240;8.798;2024-01-15T00:57:56;1.70;99.90
31765;DHT22;18338;53.240;8.798;2024-01-15T01:00:29;1.70;99.90
31765;DHT22;18338;53.240;8.798;2024-01-15T01:03:00;1.60;99.90
31765;DHT22;18338;53.240;8.798;2024-01-15T01:05:28;1.60;99.90
31765;DHT22;18338;53.240;8.798;2024-01-15T01:07:55;1.70;99.90
31765;DHT22;18338;53.240;8.798;2024-01-15T01:10:22;1.70;99.90
31765;DHT22;18338;53.240;8.798;2024-01-15T01:12:49;1.80;99.90
31765;DHT22;18338;53.240;8.798;2024-01-15T01:15:17;1.80;99.90
31765;DHT22;18338;53.240;8.798;2024-01-15T01:17:43;1.80;99.90
31765;DHT22;18338;53.240;8.798;2024-01-15T01:20:11;1.70;99.90
31765;DHT22;18338;53.240;8.798;2024-01-15T01:22:45;1.70;99.90
31765;DHT22;18338;53.240;8.798;2024-01-15T01:25:18;1.70;99.90
31765;DHT22;18338;53.240;8.798;2024-01-15T01:28:04;1.70;99.90
31765;DHT22;18338;53.240;8.798;2024-01-15T01:30:42;1.80;99.90
31765;DHT22;18338;53.240;8.798;2024-01-15T01:33:26;1.70;99.90
31765;DHT22;18338;53.240;8.798;2024-01-15T01:35:54;1.90;99.90
31765;DHT22;18338;53.240;8.798;2024-01-15T01:38:21;1.80;99.90
31765;DHT22;18338;53.240;8.798;2024-01-15T01:40:48;1.80;99.90
31765;DHT22;18338;53.240;8.798;2024-01-15T01:43:15;1.90;99.90
31765;DHT22;18338;53.240;8.798;2024-01-15T01:45:51;1.80;99.90
31765;DHT22;18338;53.240;8.798;2024-01-15T01:48:24;1.80;99.90
31765;DHT22;18338;53.240;8.798;2024-01-15T01:50:58;1.80;99.90
31765;DHT22;18338;53.240;8.798;2024-01-15T01:53:27;1.80;99.90
31765;DHT22;18338;53.240;8.798;2024-01-15T01:55:58;1.80;99.90
31765;DHT22;18338;53.240;8.798;2024-01-15T01:58:25;1.80;99.90
31765;DHT22;18338;53.240;8.798;2024-01-15T02:00:54;1.80;99.90
31765;DHT22;18338;53.240;8.798;2024-01-15T02:03:21;1.90;99.90
31765;DHT22;18338;53.240;8.798;2024-01-15T02:05:52;1.90;99.90
31765;DHT22;18338;53.240;8.798;2024-01-15T02:08:21;1.80;99.90
31765;DHT22;18338;53.240;8.798;2024-01-15T02:10:48;1.80;99.90
31765;DHT22;18338;53.240;8.798;2024-01-15T02:13:16;1.90;99.90
31765;DHT22;18338;53.240;8.798;2024-01-15T02:15:43;1.90;99.90
31765;DHT22;18338;53.240;8.798;2024-01-15T02:18:11;1.80;99.90
31765;DHT22;18338;53.240;8.798;2024-01-15T02:20:42;1.90;99.90
31765;DHT22;18338;53.240;8.798;2024-01-15T02:23:15;2.00;99.90
31765;DHT22;18338;53.240;8.798;2024-01-15T02:25:43;1.90;99.90
31765;DHT22;18338;53.240;8.798;2024-01-15T02:28:17;1.80;99.90
31765;DHT22;18338;53.240;8.798;2024-01-15T02:30:46;1.70;99.90
31765;DHT22;18338;53.240;8.798;2024-01-15T02:33:20;1.80;99.90
31765;DHT22;18338;53.240;8.798;2024-01-15T02:35:48;1.80;99.90
31765;DHT22;18338;53.240;8.798;2024-01-15T02:38:19;1.80;99.90
31765;DHT22;18338;53.240;8.798;2024-01-15T02:40:46;1.80;99.90
31765;DHT22;18338;53.240;8.798;2024-01-15T02:43:14;1.80;99.90
31765;DHT22;18338;53.240;8.798;2024-01-15T02:45:41;1.80;99.90
31765;DHT22;18338;53.240;8.798;2024-01-15T02:48:08;1.80;99.90
31765;DHT22;18338;53.240;8.798;2024-01-15T02:50:35;1.80;99.90
31765;DHT22;18338;53.240;8.798;2024-01-15T02:53:03;1.80;99.90
31765;DHT22;18338;53.240;8.798;2024-01-15T02:55:30;1.90;99.90
31765;DHT22;18338;53.240;8.798;2024-01-15T02:57:57;1.90;99.90
31765;DHT22;18338;53.240;8.798;2024-01-15T03:00:24;1.80;99.90
31765;DHT22;18338;53.240;8.798;2024-01-15T03:02:51;1.80;99.90
31765;DHT22;18338;53.240;8.798;2024-01-15T03:05:18;1.80;99.90
31765;DHT22;18338;53.240;8.798;2024-01-15T03:07:46;1.80;99.90
31765;DHT22;18338;53.240;8.798;2024-01-15T03:10:15;1.90;99.90
31765;DHT22;18338;53.240;8.798;2024-01-15T03:12:42;2.10;99.90
31765;DHT22;18338;53.240;8.798;2024-01-15T03:15:09;2.10;99.90
31765;DHT22;18338;53.240;8.798;2024-01-15T03:17:37;2.10;99.90
31765;DHT22;18338;53.240;8.798;2024-01-15T03:20:04;2.00;99.90
31765;DHT22;18338;53.240;8.798;2024-01-15T03:22:33;2.00;99.90
31765;DHT22;18338;53.240;8.798;2024-01-15T03:24:59;2.10;99.90
31765;DHT22;18338;53.240;8.798;2024-01-15T03:27:27;2.10;99.90
31765;DHT22;18338;53.240;8.798;2024-01-15T03:29:54;2.10;99.90
31765;DHT22;18338;53.240;8.798;2024-01-15T03:32:21;2.00;99.90
31765;DHT22;18338;53.240;8.798;2024-01-15T03:34:48;2.00;99.90
31765;DHT22;18338;53.240;8.798;2024-01-15T03:37:15;2.00;99.90
31765;DHT22;18338;53.240;8.798;2024-01-15T03:39:42;2.00;99.90
31765;DHT22;18338;53.240;8.798;2024-01-15T03:42:09;2.00;99.90
31765;DHT22;18338;53.240;8.798;2024-01-15T03:44:36;1.90;99.90
31765;DHT22;18338;53.240;8.798;2024-01-15T03:47:03;1.80;99.90
31765;DHT22;18338;53.240;8.798;2024-01-15T03:49:30;1.90;99.90
31765;DHT22;18338;53.240;8.798;2024-01-15T03:51:57;1.90;99.90
31765;DHT22;18338;53.240;8.798;2024-01-15T03:54:24;1.80;99.90
31765;DHT22;18338;53.240;8.798;2024-01-15T03:56:51;1.80;99.90
31765;DHT22;18338;53.240;8.798;2024-01-15T03:59:18;1.80;99.90
31765;DHT22;18338;53.240;8.798;2024-01-15T04:01:49;1.80;99.90
31765;DHT22;18338;53.240;8.798;2024-01-15T04:04:19;1.80;99.90
31765;DHT22;18338;53.240;8.798;2024-01-15T04:06:46;1.80;99.90
31765;DHT22;18338;53.240;8.798;2024-01-15T04:09:13;1.80;99.90
31765;DHT22;18338;53.240;8.798;2024-01-15T04:11:40;1.80;99.90
31765;DHT22;18338;53.240;8.798;2024-01-15T04:14:10;1.90;99.90
31765;DHT22;18338;53.240;8.798;2024-01-15T04:16:37;1.90;99.90
31765;DHT22;18338;53.240;8.798;2024-01-15T04:19:07;1.90;99.90
31765;DHT22;18338;53.240;8.798;2024-01-15T04:21:48;1.90;99.90
31765;DHT22;18338;53.240;8.798;2024-01-15T04:24:15;1.90;99.90
31765;DHT22;18338;53.240;8.798;2024-01-15T04:26:47;1.90;99.90
31765;DHT22;18338;53.240;8.798;2024-01-15T04:29:14;1.90;99.90
31765;DHT22;18338;53.240;8.798;2024-01-15T04:31:44;1.90;99.90
31765;DHT22;18338;53.240;8.798;2024-01-15T04:34:16;1.90;99.90
31765;DHT22;18338;53.240;8.798;2024-01-15T04:36:53;1.90;99.90
31765;DHT22;18338;53.240;8.798;2024-01-15T04:39:20;2.00;99.90
31765;DHT22;18338;53.240;8.798;2024-01-15T04:41:47;2.00;99.90
31765;DHT22;18338;53.240;8.798;2024-01-15T04:44:17;2.00;99.90
31765;DHT22;18338;53.240;8.798;2024-01-15T04:46:43;2.00;99.90
31765;DHT22;18338;53.240;8.798;2024-01-15T04:49:15;1.90;99.90
31765;DHT22;18338;53.240;8.798;2024-01-15T04:51:46;2.00;99.90
31765;DHT22;18338;53.240;8.798;2024-01-15T04:54:16;2.00;99.90
31765;DHT22;18338;53.240;8.798;2024-01-15T04:56:44;2.00;99.90
31765;DHT22;18338;53.240;8.798;2024-01-15T04:59:13;1.90;99.90
31765;DHT22;18338;53.240;8.798;2024-01-15T05:01:43;1.90;99.90
31765;DHT22;18338;53.240;8.798;2024-01-15T05:04:10;1.90;99.90
31765;DHT22;18338;53.240;8.798;2024-01-15T05:06:37;1.90;99.90
31765;DHT22;18338;53.240;8.798;2024-01-15T05:09:04;1.90;99.90
31765;DHT22;18338;53.240;8.798;2024-01-15T05:11:32;1.90;99.90
31765;DHT22;18338;53.240;8.798;2024-01-15T05:13:59;1.80;99.90
31765;DHT22;18338;53.240;8.798;2024-01-15T05:16:26;1.80;99.90
31765;DHT22;18338;53.240;8.798;2024-01-15T05:18:54;1.80;99.90
31765;DHT22;18338;53.240;8.798;2024-01-15T05:21:21;1.90;99.90
31765;DHT22;18338;53.240;8.798;2024-01-15T05:23:48;1.90;99.90
31765;DHT22;18338;53.240;8.798;2024-01-15T05:26:15;1.90;99.90
31765;DHT22;18338;53.240;8.798;2024-01-15T05:28:44;1.90;99.90
31765;DHT22;18338;53.240;8.798;2024-01-15T05:31:12;1.90;99.90
31765;DHT22;18338;53.240;8.798;2024-01-15T05:33:39;2.00;99.90
31765;DHT22;18338;53.240;8.798;2024-01-15T05:36:07;1.90;99.90
31765;DHT22;18338;53.240;8.798;2024-01-15T05:38:34;1.90;99.90
31765;DHT22;18338;53.240;8.798;2024-01-15T05:41:02;1.90;99.90
31765;DHT22;18338;53.240;8.798;2024-01-15T05:43:29;1.80;99.90
31765;DHT22;18338;53.240;8.798;2024-01-15T05:45:56;1.80;99.90
31765;DHT22;18338;53.240;8.798;2024-01-15T05:48:23;1.80;99.90
31765;DHT22;18338;53.240;8.798;2024-01-15T05:50:50;1.80;99.90
31765;DHT22;18338;53.240;8.798;2024-01-15T05:53:17;1.80;99.90
31765;DHT22;18338;53.240;8.798;2024-01-15T05:55:43;1.80;99.90
31765;DHT22;18338;53.240;8.798;2024-01-15T05:58:10;1.90;99.90
31765;DHT22;18338;53.240;8.798;2024-01-15T06:00:37;1.90;99.90
31765;DHT22;18338;53.240;8.798;2024-01-15T06:03:06;1.90;99.90
31765;DHT22;18338;53.240;8.798;2024-01-15T06:05:36;1.90;99.90
31765;DHT22;18338;53.240;8.798;2024-01-15T06:08:03;1.90;99.90
31765;DHT22;18338;53.240;8.798;2024-01-15T06:10:30;1.90;99.90
31765;DHT22;18338;53.240;8.798;2024-01-15T06:12:57;1.90;99.90
31765;DHT22;18338;53.240;8.798;2024-01-15T06:15:24;1.90;99.90
31765;DHT22;18338;53.240;8.798;2024-01-15T06:17:51;1.80;99.90
31765;DHT22;18338;53.240;8.798;2024-01-15T06:20:19;1.80;99.90
31765;DHT22;18338;53.240;8.798;2024-01-15T06:22:47;1.90;99.90
31765;DHT22;18338;53.240;8.798;2024-01-15T06:25:14;1.90;99.90
31765;DHT22;18338;53.240;8.798;2024-01-15T06:27:41;1.90;99.90
31765;DHT22;18338;53.240;8.798;2024-01-15T06:30:09;1.90;99.90
31765;DHT22;18338;53.240;8.798;2024-01-15T06:32:36;1.90;99.90
31765;DHT22;18338;53.240;8.798;2024-01-15T06:35:03;1.90;99.90
31765;DHT22;18338;53.240;8.798;2024-01-15T06:37:53;1.90;99.90
31765;DHT22;18338;53.240;8.798;2024-01-15T06:40:21;2.00;99.90
31765;DHT22;18338;53.240;8.798;2024-01-15T06:42:52;1.90;99.90
31765;DHT22;18338;53.240;8.798;2024-01-15T06:45:29;1.90;99.90
31765;DHT22;18338;53.240;8.798;2024-01-15T06:47:58;1.90;99.90
31765;DHT22;18338;53.240;8.798;2024-01-15T06:50:25;1.80;99.90
31765;DHT22;18338;53.240;8.798;2024-01-15T06:52:56;1.80;99.90
31765;DHT22;18338;53.240;8.798;2024-01-15T06:55:23;1.80;99.90
31765;DHT22;18338;53.240;8.798;2024-01-15T06:57:51;1.80;99.90
31765;DHT22;18338;53.240;8.798;2024-01-15T07:00:18;1.80;99.90
31765;DHT22;18338;53.240;8.798;2024-01-15T07:02:49;1.80;99.90
31765;DHT22;18338;53.240;8.798;2024-01-15T07:05:16;1.80;99.90
31765;DHT22;18338;53.240;8.798;2024-01-15T07:07:43;1.70;99.90
31765;DHT22;18338;53.240;8.798;2024-01-15T07:10:11;1.70;99.90
31765;DHT22;18338;53.240;8.798;2024-01-15T07:12:38;1.70;99.90
31765;DHT22;18338;53.240;8.798;2024-01-15T07:15:08;1.70;99.90
31765;DHT22;18338;53.240;8.798;2024-01-15T07:17:37;1.70;99.90
31765;DHT22;18338;53.240;8.798;2024-01-15T07:20:07;1.80;99.90
31765;DHT22;18338;53.240;8.798;2024-01-15T07:22:38;1.70;99.90
31765;DHT22;18338;53.240;8.798;2024-01-15T07:25:05;1.70;99.90
31765;DHT22;18338;53.240;8.798;2024-01-15T07:27:35;1.70;99.90
31765;DHT22;18338;53.240;8.798;2024-01-15T07:30:02;1.70;99.90
31765;DHT22;18338;53.240;8.798;2024-01-15T07:32:35;1.70;99.90
31765;DHT22;18338;53.240;8.798;2024-01-15T07:35:02;1.60;99.90
31765;DHT22;18338;53.240;8.798;2024-01-15T07:40:11;1.60;99.90
31765;DHT22;18338;53.240;8.798;2024-01-15T07:42:39;1.60;99.90
31765;DHT22;18338;53.240;8.798;2024-01-15T07:45:06;1.60;99.90
31765;DHT22;18338;53.240;8.798;2024-01-15T07:47:33;1.60;99.90
31765;DHT22;18338;53.240;8.798;2024-01-15T07:49:59;1.70;99.90
31765;DHT22;18338;53.240;8.798;2024-01-15T07:52:32;1.70;99.90
31765;DHT22;18338;53.240;8.798;2024-01-15T07:54:59;1.70;99.90
31765;DHT22;18338;53.240;8.798;2024-01-15T07:57:31;1.70;99.90
31765;DHT22;18338;53.240;8.798;2024-01-15T07:59:58;1.70;99.90
31765;DHT22;18338;53.240;8.798;2024-01-15T08:02:25;1.70;99.90
31765;DHT22;18338;53.240;8.798;2024-01-15T08:04:52;1.70;99.90
31765;DHT22;18338;53.240;8.798;2024-01-15T08:07:19;1.70;99.90
31765;DHT22;18338;53.240;8.798;2024-01-15T08:09:46;1.70;99.90
31765;DHT22;18338;53.240;8.798;2024-01-15T08:12:14;1.70;99.90
31765;DHT22;18338;53.240;8.798;2024-01-15T08:14:41;1.60;99.90
31765;DHT22;18338;53.240;8.798;2024-01-15T08:17:08;1.70;99.90
31765;DHT22;18338;53.240;8.798;2024-01-15T08:19:35;1.60;99.90
31765;DHT22;18338;53.240;8.798;2024-01-15T08:22:02;1.60;99.90
31765;DHT22;18338;53.240;8.798;2024-01-15T08:24:29;1.60;99.90
31765;DHT22;18338;53.240;8.798;2024-01-15T08:26:56;1.60;99.90
31765;DHT22;18338;53.240;8.798;2024-01-15T08:29:25;1.60;99.90
31765;DHT22;18338;53.240;8.798;2024-01-15T08:31:52;1.60;99.90
31765;DHT22;18338;53.240;8.798;2024-01-15T08:34:20;1.50;99.90
31765;DHT22;18338;53.240;8.798;2024-01-15T08:36:47;1.50;99.90
31765;DHT22;18338;53.240;8.798;2024-01-15T08:39:14;1.50;99.90
31765;DHT22;18338;53.240;8.798;2024-01-15T08:41:41;1.60;99.90
31765;DHT22;18338;53.240;8.798;2024-01-15T08:44:07;1.60;99.90
31765;DHT22;18338;53.240;8.798;2024-01-15T08:46:34;1.60;99.90
31765;DHT22;18338;53.240;8.798;2024-01-15T08:49:01;1.60;99.90
31765;DHT22;18338;53.240;8.798;2024-01-15T08:51:30;1.60;99.90
31765;DHT22;18338;53.240;8.798;2024-01-15T08:53:57;1.50;99.90
31765;DHT22;18338;53.240;8.798;2024-01-15T08:56:24;1.50;99.90
31765;DHT22;18338;53.240;8.798;2024-01-15T08:58:51;1.50;99.90
31765;DHT22;18338;53.240;8.798;2024-01-15T09:01:18;1.60;99.90
31765;DHT22;18338;53.240;8.798;2024-01-15T09:03:46;1.60;99.90
31765;DHT22;18338;53.240;8.798;2024-01-15T09:06:15;1.60;99.90
31765;DHT22;18338;53.240;8.798;2024-01-15T09:08:41;1.60;99.90
31765;DHT22;18338;53.240;8.798;2024-01-15T09:11:08;1.60;99.90
31765;DHT22;18338;53.240;8.798;2024-01-15T09:13:35;1.70;99.90
31765;DHT22;18338;53.240;8.798;2024-01-15T09:16:02;1.70;99.90
31765;DHT22;18338;53.240;8.798;2024-01-15T09:18:30;1.80;99.90
31765;DHT22;18338;53.240;8.798;2024-01-15T09:20:57;1.80;99.90
31765;DHT22;18338;53.240;8.798;2024-01-15T09:23:24;1.80;99.90
31765;DHT22;18338;53.240;8.798;2024-01-15T09:25:54;1.80;99.90
31765;DHT22;18338;53.240;8.798;2024-01-15T09:28:21;1.80;99.90
31765;DHT22;18338;53.240;8.798;2024-01-15T09:30:47;1.80;99.90
31765;DHT22;18338;53.240;8.798;2024-01-15T09:33:14;1.80;99.90
31765;DHT22;18338;53.240;8.798;2024-01-15T09:35:41;1.80;99.90
31765;DHT22;18338;53.240;8.798;2024-01-15T09:38:08;1.80;99.90
31765;DHT22;18338;53.240;8.798;2024-01-15T09:40:38;1.80;99.90
31765;DHT22;18338;53.240;8.798;2024-01-15T09:43:05;1.80;99.90
31765;DHT22;18338;53.240;8.798;2024-01-15T09:45:32;1.80;99.90
31765;DHT22;18338;53.240;8.798;2024-01-15T09:47:59;1.90;99.90
31765;DHT22;18338;53.240;8.798;2024-01-15T09:50:26;1.90;99.90
31765;DHT22;18338;53.240;8.798;2024-01-15T09:52:54;1.90;99.90
31765;DHT22;18338;53.240;8.798;2024-01-15T09:55:21;1.90;99.90
31765;DHT22;18338;53.240;8.798;2024-01-15T09:57:49;1.80;99.90
31765;DHT22;18338;53.240;8.798;2024-01-15T10:00:20;1.90;99.90
31765;DHT22;18338;53.240;8.798;2024-01-15T10:02:47;1.90;99.90
31765;DHT22;18338;53.240;8.798;2024-01-15T10:05:14;2.00;99.90
31765;DHT22;18338;53.240;8.798;2024-01-15T10:07:42;2.00;99.90
31765;DHT22;18338;53.240;8.798;2024-01-15T10:10:11;2.00;99.90
31765;DHT22;18338;53.240;8.798;2024-01-15T10:12:39;2.00;99.90
31765;DHT22;18338;53.240;8.798;2024-01-15T10:15:06;2.00;99.90
31765;DHT22;18338;53.240;8.798;2024-01-15T10:17:37;2.00;99.90
31765;DHT22;18338;53.240;8.798;2024-01-15T10:20:12;2.00;99.90
31765;DHT22;18338;53.240;8.798;2024-01-15T10:22:43;2.00;99.90
31765;DHT22;18338;53.240;8.798;2024-01-15T10:25:11;2.00;99.90
31765;DHT22;18338;53.240;8.798;2024-01-15T10:27:37;2.00;99.90
31765;DHT22;18338;53.240;8.798;2024-01-15T10:30:05;2.10;99.90
31765;DHT22;18338;53.240;8.798;2024-01-15T10:32:33;2.10;99.90
31765;DHT22;18338;53.240;8.798;2024-01-15T10:34:59;2.10;99.90
31765;DHT22;18338;53.240;8.798;2024-01-15T10:37:27;2.10;99.90
31765;DHT22;18338;53.240;8.798;2024-01-15T10:39:55;2.20;99.90
31765;DHT22;18338;53.240;8.798;2024-01-15T10:42:22;2.30;99.90
31765;DHT22;18338;53.240;8.798;2024-01-15T10:44:49;2.30;99.90
31765;DHT22;18338;53.240;8.798;2024-01-15T10:47:16;2.20;99.90
31765;DHT22;18338;53.240;8.798;2024-01-15T10:49:45;2.10;99.90
31765;DHT22;18338;53.240;8.798;2024-01-15T10:52:13;2.10;99.90
31765;DHT22;18338;53.240;8.798;2024-01-15T10:54:41;1.90;99.90
31765;DHT22;18338;53.240;8.798;2024-01-15T10:57:10;1.80;99.90
31765;DHT22;18338;53.240;8.798;2024-01-15T10:59:37;1.70;99.90
31765;DHT22;18338;53.240;8.798;2024-01-15T11:02:04;1.70;99.90
31765;DHT22;18338;53.240;8.798;2024-01-15T11:04:32;1.70;99.90
31765;DHT22;18338;53.240;8.798;2024-01-15T11:07:00;1.80;99.90
31765;DHT22;18338;53.240;8.798;2024-01-15T11:09:29;1.80;99.90
31765;DHT22;18338;53.240;8.798;2024-01-15T11:12:07;2.00;99.90
31765;DHT22;18338;53.240;8.798;2024-01-15T11:14:35;1.90;99.90
31765;DHT22;18338;53.240;8.798;2024-01-15T11:17:05;1.70;99.90
31765;DHT22;18338;53.240;8.798;2024-01-15T11:19:46;1.60;99.90
31765;DHT22;18338;53.240;8.798;2024-01-15T11:25:03;1.40;99.90
31765;DHT22;18338;53.240;8.798;2024-01-15T11:27:43;1.40;99.90
31765;DHT22;18338;53.240;8.798;2024-01-15T11:30:14;1.30;99.90
31765;DHT22;18338;53.240;8.798;2024-01-15T11:32:41;1.30;99.90
31765;DHT22;18338;53.240;8.798;2024-01-15T11:35:10;1.40;99.90
31765;DHT22;18338;53.240;8.798;2024-01-15T11:40:19;1.40;99.90
31765;DHT22;18338;53.240;8.798;2024-01-15T11:42:47;1.50;99.90
31765;DHT22;18338;53.240;8.798;2024-01-15T11:45:22;1.60;99.90
31765;DHT22;18338;53.240;8.798;2024-01-15T11:50:35;1.50;99.90
31765;DHT22;18338;53.240;8.798;2024-01-15T11:53:03;1.40;99.90
31765;DHT22;18338;53.240;8.798;2024-01-15T11:55:39;1.40;99.90
31765;DHT22;18338;53.240;8.798;2024-01-15T11:58:11;1.40;99.90
31765;DHT22;18338;53.240;8.798;2024-01-15T12:00:47;1.30;99.90
31765;DHT22;18338;53.240;8.798;2024-01-15T12:03:14;1.40;99.90
31765;DHT22;18338;53.240;8.798;2024-01-15T12:05:42;1.50;99.90
31765;DHT22;18338;53.240;8.798;2024-01-15T12:08:10;1.60;99.90
31765;DHT22;18338;53.240;8.798;2024-01-15T12:10:39;1.70;99.90
31765;DHT22;18338;53.240;8.798;2024-01-15T12:13:12;1.80;99.90
31765;DHT22;18338;53.240;8.798;2024-01-15T12:15:44;2.00;99.90
31765;DHT22;18338;53.240;8.798;2024-01-15T12:18:17;2.30;99.90
31765;DHT22;18338;53.240;8.798;2024-01-15T12:21:04;2.70;99.90
31765;DHT22;18338;53.240;8.798;2024-01-15T12:23:31;2.60;99.90
31765;DHT22;18338;53.240;8.798;2024-01-15T12:26:10;2.60;99.90
31765;DHT22;18338;53.240;8.798;2024-01-15T12:28:37;2.70;99.90
31765;DHT22;18338;53.240;8.798;2024-01-15T12:31:06;2.70;99.90
31765;DHT22;18338;53.240;8.798;2024-01-15T12:33:33;2.50;99.90
31765;DHT22;18338;53.240;8.798;2024-01-15T12:36:00;2.40;99.90
31765;DHT22;18338;53.240;8.798;2024-01-15T12:38:28;2.40;99.90
31765;DHT22;18338;53.240;8.798;2024-01-15T12:40:55;2.30;99.90
31765;DHT22;18338;53.240;8.798;2024-01-15T12:43:25;2.40;99.90
31765;DHT22;18338;53.240;8.798;2024-01-15T12:45:52;2.60;99.90
31765;DHT22;18338;53.240;8.798;2024-01-15T12:48:19;2.60;99.90
31765;DHT22;18338;53.240;8.798;2024-01-15T12:50:46;2.50;99.90
31765;DHT22;18338;53.240;8.798;2024-01-15T12:53:14;2.40;99.90
31765;DHT22;18338;53.240;8.798;2024-01-15T12:55:41;2.10;99.90
31765;DHT22;18338;53.240;8.798;2024-01-15T12:58:08;2.00;99.90
31765;DHT22;18338;53.240;8.798;2024-01-15T13:00:36;1.80;99.90
31765;DHT22;18338;53.240;8.798;2024-01-15T13:03:03;1.70;99.90
31765;DHT22;18338;53.240;8.798;2024-01-15T13:05:32;1.60;99.90
31765;DHT22;18338;53.240;8.798;2024-01-15T13:08:01;1.50;99.90
31765;DHT22;18338;53.240;8.798;2024-01-15T13:10:28;1.50;99.90
31765;DHT22;18338;53.240;8.798;2024-01-15T13:12:57;1.40;99.90
31765;DHT22;18338;53.240;8.798;2024-01-15T13:15:24;1.40;99.90
31765;DHT22;18338;53.240;8.798;2024-01-15T13:17:51;1.40;99.90
31765;DHT22;18338;53.240;8.798;2024-01-15T13:20:20;1.40;99.90
31765;DHT22;18338;53.240;8.798;2024-01-15T13:22:49;1.40;99.90
31765;DHT22;18338;53.240;8.798;2024-01-15T13:25:16;1.50;99.90
31765;DHT22;18338;53.240;8.798;2024-01-15T13:27:43;1.50;99.90
31765;DHT22;18338;53.240;8.798;2024-01-15T13:30:10;1.60;99.90
31765;DHT22;18338;53.240;8.798;2024-01-15T13:32:39;1.60;99.90
31765;DHT22;18338;53.240;8.798;2024-01-15T13:35:06;1.70;99.90
31765;DHT22;18338;53.240;8.798;2024-01-15T13:37:36;1.60;99.90
31765;DHT22;18338;53.240;8.798;2024-01-15T13:40:04;1.70;99.90
31765;DHT22;18338;53.240;8.798;2024-01-15T13:42:36;1.70;99.90
31765;DHT22;18338;53.240;8.798;2024-01-15T13:45:06;1.60;99.90
31765;DHT22;18338;53.240;8.798;2024-01-15T13:47:34;1.70;99.90
31765;DHT22;18338;53.240;8.798;2024-01-15T13:50:01;1.70;99.90
31765;DHT22;18338;53.240;8.798;2024-01-15T13:52:28;1.70;99.90
31765;DHT22;18338;53.240;8.798;2024-01-15T13:54:55;1.60;99.90
31765;DHT22;18338;53.240;8.798;2024-01-15T13:57:21;1.70;99.90
31765;DHT22;18338;53.240;8.798;2024-01-15T13:59:49;1.70;99.90
31765;DHT22;18338;53.240;8.798;2024-01-15T14:02:16;1.70;99.90
31765;DHT22;18338;53.240;8.798;2024-01-15T14:04:48;1.70;99.90
31765;DHT22;18338;53.240;8.798;2024-01-15T14:07:18;1.70;99.90
31765;DHT22;18338;53.240;8.798;2024-01-15T14:09:45;1.70;99.90
31765;DHT22;18338;53.240;8.798;2024-01-15T14:12:12;1.70;99.90
31765;DHT22;18338;53.240;8.798;2024-01-15T14:14:39;1.80;99.90
31765;DHT22;18338;53.240;8.798;2024-01-15T14:17:07;1.80;99.90
31765;DHT22;18338;53.240;8.798;2024-01-15T14:19:34;1.80;99.90
31765;DHT22;18338;53.240;8.798;2024-01-15T14:22:01;1.80;99.90
31765;DHT22;18338;53.240;8.798;2024-01-15T14:24:28;1.70;99.90
31765;DHT22;18338;53.240;8.798;2024-01-15T14:26:55;1.70;99.90
31765;DHT22;18338;53.240;8.798;2024-01-15T14:29:23;1.70;99.90
31765;DHT22;18338;53.240;8.798;2024-01-15T14:31:52;1.70;99.90
31765;DHT22;18338;53.240;8.798;2024-01-15T14:34:20;1.70;99.90
31765;DHT22;18338;53.240;8.798;2024-01-15T14:36:50;1.70;99.90
31765;DHT22;18338;53.240;8.798;2024-01-15T14:39:26;1.70;99.90
31765;DHT22;18338;53.240;8.798;2024-01-15T14:41:57;1.70;99.90
31765;DHT22;18338;53.240;8.798;2024-01-15T14:44:32;1.70;99.90
31765;DHT22;18338;53.240;8.798;2024-01-15T14:47:01;1.60;99.90
31765;DHT22;18338;53.240;8.798;2024-01-15T14:49:31;1.60;99.90
31765;DHT22;18338;53.240;8.798;2024-01-15T14:51:58;1.60;99.90
31765;DHT22;18338;53.240;8.798;2024-01-15T14:54:25;1.60;99.90
31765;DHT22;18338;53.240;8.798;2024-01-15T14:56:52;1.60;99.90
31765;DHT22;18338;53.240;8.798;2024-01-15T14:59:22;1.60;99.90
31765;DHT22;18338;53.240;8.798;2024-01-15T15:01:49;1.60;99.90
31765;DHT22;18338;53.240;8.798;2024-01-15T15:04:26;1.50;99.90
31765;DHT22;18338;53.240;8.798;2024-01-15T15:09:35;1.50;99.90
31765;DHT22;18338;53.240;8.798;2024-01-15T15:12:04;1.50;99.90
31765;DHT22;18338;53.240;8.798;2024-01-15T15:14:32;1.60;99.90
31765;DHT22;18338;53.240;8.798;2024-01-15T15:17:17;1.60;99.90
31765;DHT22;18338;53.240;8.798;2024-01-15T15:19:43;1.50;99.90
31765;DHT22;18338;53.240;8.798;2024-01-15T15:22:10;1.60;99.90
31765;DHT22;18338;53.240;8.798;2024-01-15T15:24:38;1.60;99.90
31765;DHT22;18338;53.240;8.798;2024-01-15T15:27:05;1.50;99.90
31765;DHT22;18338;53.240;8.798;2024-01-15T15:29:34;1.60;99.90
31765;DHT22;18338;53.240;8.798;2024-01-15T15:32:04;1.60;99.90
31765;DHT22;18338;53.240;8.798;2024-01-15T15:34:31;1.60;99.90
31765;DHT22;18338;53.240;8.798;2024-01-15T15:36:57;1.60;99.90
31765;DHT22;18338;53.240;8.798;2024-01-15T15:39:24;1.60;99.90
31765;DHT22;18338;53.240;8.798;2024-01-15T15:41:51;1.60;99.90
31765;DHT22;18338;53.240;8.798;2024-01-15T15:44:18;1.50;99.90
31765;DHT22;18338;53.240;8.798;2024-01-15T15:46:45;1.40;99.90
31765;DHT22;18338;53.240;8.798;2024-01-15T15:49:11;1.40;99.90
31765;DHT22;18338;53.240;8.798;2024-01-15T15:51:40;1.30;99.90
31765;DHT22;18338;53.240;8.798;2024-01-15T15:54:07;1.30;99.90
31765;DHT22;18338;53.240;8.798;2024-01-15T15:56:33;1.30;99.90
31765;DHT22;18338;53.240;8.798;2024-01-15T15:59:08;1.20;99.90
31765;DHT22;18338;53.240;8.798;2024-01-15T16:01:36;1.20;99.90
31765;DHT22;18338;53.240;8.798;2024-01-15T16:04:03;1.20;99.90
31765;DHT22;18338;53.240;8.798;2024-01-15T16:06:30;1.10;99.90